createdAt,value
2023-02-18T05:00:54.777Z,33.79
2023-02-18T05:03:22.153Z,33.92
2023-02-18T05:05:48.782Z,33.75
2023-02-18T05:08:16.972Z,33.71
2023-02-18T05:10:45.127Z,33.53
2023-02-18T05:13:11.789Z,33.93
2023-02-18T05:15:38.585Z,33.98
2023-02-18T05:18:05.928Z,33.90
2023-02-18T05:20:35.127Z,33.96
2023-02-18T05:23:02.038Z,33.79
2023-02-18T05:25:29.097Z,33.83
2023-02-18T05:27:56.433Z,33.82
2023-02-18T05:30:23.582Z,33.91
2023-02-18T05:32:51.144Z,33.74
2023-02-18T05:35:17.794Z,33.57
2023-02-18T05:37:44.852Z,33.32
2023-02-18T05:40:12.106Z,33.67
2023-02-18T05:42:41.062Z,33.35
2023-02-18T05:45:08.391Z,33.44
2023-02-18T05:47:35.193Z,33.46
2023-02-18T05:50:02.519Z,33.17
2023-02-18T05:52:30.398Z,33.30
2023-02-18T05:54:57.601Z,33.35
2023-02-18T05:57:28.760Z,33.84
2023-02-18T05:59:58.702Z,34.67
2023-02-18T06:02:26.590Z,35.38
2023-02-18T06:04:54.350Z,35.16
2023-02-18T06:07:21.279Z,35.10
2023-02-18T06:09:48.298Z,34.99
2023-02-18T06:12:17.105Z,34.50
2023-02-18T06:14:44.192Z,34.36
2023-02-18T06:17:12.649Z,34.18
2023-02-18T06:19:41.565Z,34.20
2023-02-18T06:22:08.263Z,34.06
2023-02-18T06:24:36.383Z,33.92
2023-02-18T06:27:03.474Z,33.90
2023-02-18T06:29:33.600Z,33.69
2023-02-18T06:32:00.363Z,33.69
2023-02-18T06:34:29.093Z,33.93
2023-02-18T06:36:56.356Z,33.77
2023-02-18T06:39:23.998Z,33.70
2023-02-18T06:41:51.068Z,33.47
2023-02-18T06:44:17.750Z,33.58
2023-02-18T06:46:45.106Z,33.32
2023-02-18T06:49:13.107Z,33.70
2023-02-18T06:51:41.013Z,33.69
2023-02-18T06:54:07.800Z,33.51
2023-02-18T06:56:36.027Z,33.21
2023-02-18T06:59:04.136Z,33.25
2023-02-18T07:01:32.949Z,33.70
2023-02-18T07:04:00.982Z,33.68
2023-02-18T07:06:28.200Z,33.30
2023-02-18T07:08:55.586Z,33.44
2023-02-18T07:11:23.592Z,33.42
2023-02-18T07:13:51.522Z,33.41
2023-02-18T07:16:20.873Z,33.41
2023-02-18T07:18:49.089Z,33.35
2023-02-18T07:21:15.827Z,33.72
2023-02-18T07:23:44.130Z,33.34
2023-02-18T07:26:11.989Z,33.49
2023-02-18T07:28:39.625Z,33.39
2023-02-18T07:31:06.348Z,33.35
2023-02-18T07:33:33.573Z,33.37
2023-02-18T07:36:01.019Z,33.30
2023-02-18T07:38:28.621Z,33.43
2023-02-18T07:40:56.827Z,33.38
2023-02-18T07:43:26.095Z,33.31
2023-02-18T07:45:54.107Z,33.39
2023-02-18T07:48:21.248Z,33.67
2023-02-18T07:50:48.018Z,33.48
2023-02-18T07:53:16.536Z,33.43
2023-02-18T07:55:49.483Z,33.49
2023-02-18T07:58:16.097Z,33.40
2023-02-18T08:00:47.556Z,33.39
2023-02-18T08:03:15.890Z,33.46
2023-02-18T08:05:43.178Z,33.64
2023-02-18T08:08:13.724Z,33.56
2023-02-18T08:10:40.385Z,33.43
2023-02-18T08:13:09.342Z,33.54
2023-02-18T08:15:37.014Z,33.55
2023-02-18T08:18:07.291Z,33.69
2023-02-18T08:20:38.605Z,33.75
2023-02-18T08:23:07.766Z,33.99
2023-02-18T08:25:35.040Z,34.09
2023-02-18T08:28:01.797Z,33.73
2023-02-18T08:30:28.717Z,33.84
2023-02-18T08:32:55.600Z,34.09
2023-02-18T08:35:23.827Z,33.85
2023-02-18T08:37:52.260Z,33.85
2023-02-18T08:40:21.037Z,34.10
2023-02-18T08:42:48.701Z,34.43
2023-02-18T08:45:15.693Z,34.55
2023-02-18T08:48:16.885Z,35.83
2023-02-18T08:50:29.567Z,35.68
2023-02-18T08:52:57.358Z,35.58
2023-02-18T08:55:26.720Z,35.28
2023-02-18T08:57:53.760Z,35.04
2023-02-18T09:00:20.620Z,35.09
2023-02-18T09:02:49.011Z,34.94
2023-02-18T09:05:17.073Z,35.29
2023-02-18T09:07:44.058Z,35.52
2023-02-18T09:10:11.982Z,35.33
2023-02-18T09:12:38.653Z,35.40
2023-02-18T09:15:06.585Z,35.26
2023-02-18T09:17:33.413Z,34.96
2023-02-18T09:20:00.907Z,34.96
2023-02-18T09:22:28.726Z,34.95
2023-02-18T09:24:56.173Z,35.10
2023-02-18T09:27:24.532Z,35.05
2023-02-18T09:29:52.030Z,35.05
2023-02-18T09:32:32.603Z,35.16
2023-02-18T09:35:03.730Z,35.00
2023-02-18T09:37:30.510Z,34.96
2023-02-18T09:40:00.144Z,35.07
2023-02-18T09:42:32.548Z,34.95
2023-02-18T09:45:02.139Z,35.01
2023-02-18T09:47:33.687Z,34.67
2023-02-18T09:50:23.958Z,34.76
2023-02-18T09:52:50.773Z,34.74
2023-02-18T09:55:25.023Z,34.84
2023-02-18T09:58:03.831Z,35.05
2023-02-18T10:00:34.620Z,34.97
2023-02-18T10:03:06.562Z,34.74
2023-02-18T10:05:34.736Z,34.75
2023-02-18T10:08:28.861Z,34.61
2023-02-18T10:10:55.673Z,34.83
2023-02-18T10:13:45.786Z,34.56
2023-02-18T10:16:18.071Z,34.72
2023-02-18T10:18:49.398Z,34.63
2023-02-18T10:21:21.184Z,34.76
2023-02-18T10:24:12.912Z,34.69
2023-02-18T10:26:40.480Z,34.67
2023-02-18T10:29:15.684Z,35.04
2023-02-18T10:31:50.489Z,34.85
2023-02-18T10:34:23.275Z,34.81
2023-02-18T10:36:52.912Z,34.81
2023-02-18T10:39:44.649Z,34.62
2023-02-18T10:42:36.407Z,34.58
2023-02-18T10:45:22.171Z,34.63
2023-02-18T10:48:13.860Z,35.60
2023-02-18T10:50:42.538Z,39.44
2023-02-18T10:53:18.052Z,38.29
2023-02-18T10:55:49.238Z,38.04
2023-02-18T10:58:43.111Z,36.95
2023-02-18T11:01:19.354Z,36.31
2023-02-18T11:03:51.973Z,36.04
2023-02-18T11:06:33.090Z,36.29
2023-02-18T11:09:00.855Z,35.71
2023-02-18T11:11:35.403Z,35.88
2023-02-18T11:14:04.910Z,35.83
2023-02-18T11:16:43.632Z,35.60
2023-02-18T11:19:34.463Z,35.49
2023-02-18T11:22:29.148Z,35.29
2023-02-18T11:24:57.730Z,35.55
2023-02-18T11:27:25.895Z,35.20
2023-02-18T11:29:54.485Z,35.77
2023-02-18T11:32:22.185Z,35.38
2023-02-18T11:34:51.385Z,35.32
2023-02-18T11:37:20.621Z,35.58
2023-02-18T11:39:53.751Z,35.27
2023-02-18T11:42:23.008Z,35.09
2023-02-18T11:44:58.598Z,35.09
2023-02-18T11:47:30.497Z,35.02
2023-02-18T11:50:10.296Z,35.06
2023-02-18T11:52:50.067Z,34.88
2023-02-18T11:55:27.393Z,35.05
2023-02-18T12:13:27.719Z,34.79
2023-02-18T12:16:16.540Z,34.40
2023-02-18T12:19:04.664Z,34.31
2023-02-18T12:22:29.451Z,34.29
2023-02-18T12:25:16.968Z,34.11
2023-02-18T12:28:28.996Z,33.93
2023-02-18T12:31:58.419Z,33.77
2023-02-18T12:35:34.938Z,33.68
2023-02-18T12:43:17.698Z,33.44
2023-02-18T12:49:00.635Z,30.29
2023-02-18T12:55:43.662Z,31.33
2023-02-18T12:58:26.018Z,31.70
2023-02-18T13:01:10.697Z,31.79
2023-02-18T13:03:47.212Z,31.82
2023-02-18T13:10:52.476Z,31.87
2023-02-18T13:13:54.798Z,31.97
2023-02-18T13:16:21.726Z,31.95
2023-02-18T13:18:59.542Z,31.71
2023-02-18T13:21:26.651Z,32.17
2023-02-18T13:24:00.319Z,32.18
2023-02-18T13:26:27.937Z,31.62
2023-02-18T13:29:28.637Z,32.08
2023-02-18T13:32:20.986Z,32.32
2023-02-18T13:35:00.942Z,32.09
2023-02-18T13:37:45.545Z,31.94
2023-02-18T13:40:52.362Z,31.92
2023-02-18T13:43:30.922Z,31.97
2023-02-18T13:49:33.747Z,32.21
2023-02-18T13:52:01.927Z,32.00
2023-02-18T13:54:30.294Z,32.39
2023-02-18T13:57:27.151Z,32.07
2023-02-18T14:00:02.768Z,32.02
2023-02-18T14:02:36.277Z,31.87
2023-02-18T14:05:03.325Z,32.34
2023-02-18T14:07:36.480Z,32.04
2023-02-18T14:10:32.253Z,32.03
2023-02-18T14:13:27.640Z,32.19
2023-02-18T14:16:32.867Z,32.36
2023-02-18T14:19:53.279Z,32.29
2023-02-18T14:22:38.645Z,32.38
2023-02-18T14:26:05.147Z,32.15
2023-02-18T14:28:34.055Z,32.03
2023-02-18T14:31:14.093Z,32.06
2023-02-18T14:34:00.956Z,32.17
2023-02-18T14:36:46.389Z,31.96
2023-02-18T14:39:19.743Z,32.07
2023-02-18T14:42:08.018Z,32.31
2023-02-18T14:44:54.240Z,32.20
2023-02-18T14:47:41.520Z,32.18
2023-02-18T14:50:31.119Z,32.28
2023-02-18T14:52:58.225Z,32.28
2023-02-18T14:55:30.551Z,32.15
2023-02-18T14:58:22.954Z,32.18
2023-02-18T15:00:49.826Z,32.02
2023-02-18T15:03:22.335Z,32.30
2023-02-18T15:05:54.768Z,32.37
2023-02-18T15:08:23.769Z,32.19
2023-02-18T15:10:59.665Z,32.37
2023-02-18T15:13:37.346Z,32.31
2023-02-18T15:16:07.999Z,32.10
2023-02-18T15:18:43.627Z,32.09
2023-02-18T15:21:37.447Z,31.81
2023-02-18T15:24:06.540Z,32.46
2023-02-18T15:26:33.925Z,32.09
2023-02-18T15:29:03.765Z,31.99
2023-02-18T15:31:32.376Z,32.12
2023-02-18T15:33:59.358Z,32.40
2023-02-18T15:36:27.657Z,31.84
2023-02-18T15:38:56.798Z,32.29
2023-02-18T15:41:23.594Z,32.36
2023-02-18T15:44:04.644Z,32.07
2023-02-18T15:46:31.990Z,32.29
2023-02-18T15:48:59.851Z,32.19
2023-02-18T15:51:29.665Z,32.19
2023-02-18T15:53:59.589Z,32.31
2023-02-18T15:56:46.962Z,31.98
2023-02-18T15:59:22.082Z,32.21
2023-02-18T16:01:56.647Z,32.25
2023-02-18T16:04:24.705Z,32.22
2023-02-18T16:06:53.632Z,32.31
2023-02-18T16:09:26.914Z,32.12
2023-02-18T16:11:59.697Z,32.08
2023-02-18T16:14:47.640Z,30.56
2023-02-18T16:17:34.339Z,30.15
2023-02-18T16:20:16.558Z,30.20
2023-02-18T16:22:45.426Z,30.56
2023-02-18T16:25:25.910Z,30.76
2023-02-18T16:27:58.124Z,31.03
2023-02-18T16:30:29.916Z,32.75
2023-02-18T16:32:58.320Z,32.35
2023-02-18T16:35:27.813Z,32.52
2023-02-18T16:37:57.738Z,32.09
2023-02-18T16:40:35.579Z,31.67
2023-02-18T16:43:15.770Z,32.04
2023-02-18T16:45:44.160Z,31.89
2023-02-18T16:48:35.635Z,31.34
2023-02-18T16:51:11.412Z,30.98
2023-02-18T16:53:38.386Z,30.88
2023-02-18T16:56:10.780Z,31.02
2023-02-18T16:58:38.278Z,31.41
2023-02-18T17:01:05.675Z,31.37
2023-02-18T17:03:32.535Z,31.38
2023-02-18T17:05:59.363Z,31.49
2023-02-18T17:08:27.628Z,31.65
2023-02-18T17:10:57.312Z,31.66
2023-02-18T17:13:26.486Z,32.29
2023-02-18T17:15:54.403Z,32.19
2023-02-18T17:18:21.856Z,32.25
2023-02-18T17:20:49.073Z,32.18
2023-02-18T17:23:16.490Z,32.13
2023-02-18T17:25:43.389Z,32.19
2023-02-18T17:28:10.232Z,32.31
2023-02-18T17:30:40.461Z,33.40
2023-02-18T17:33:08.004Z,33.44
2023-02-18T17:35:34.932Z,34.13
2023-02-18T17:38:01.808Z,33.44
2023-02-18T17:40:28.684Z,33.58
2023-02-18T17:42:55.868Z,33.58
2023-02-18T17:45:33.384Z,33.42
2023-02-18T17:48:00.728Z,33.22
2023-02-18T17:50:28.042Z,32.93
2023-02-18T17:52:55.526Z,33.12
2023-02-18T17:55:30.296Z,32.97
2023-02-18T17:57:58.996Z,32.81
2023-02-18T18:00:34.552Z,33.45
2023-02-18T18:03:01.583Z,33.30
2023-02-18T18:05:30.563Z,32.96
2023-02-18T18:07:57.661Z,33.26
2023-02-18T18:10:28.622Z,33.42
2023-02-18T18:12:56.202Z,33.38
2023-02-18T18:15:27.285Z,33.51
2023-02-18T18:17:54.723Z,33.43
2023-02-18T18:20:23.314Z,33.13
2023-02-18T18:22:51.650Z,33.03
2023-02-18T18:25:27.102Z,33.19
2023-02-18T18:27:54.198Z,33.57
2023-02-18T18:30:31.166Z,33.53
2023-02-18T18:32:58.226Z,33.42
2023-02-18T18:35:32.210Z,33.56
2023-02-18T18:37:59.291Z,33.53
2023-02-18T18:40:28.286Z,33.75
2023-02-18T18:42:55.863Z,33.92
2023-02-18T18:45:33.479Z,33.95
2023-02-18T18:48:01.285Z,33.55
2023-02-18T18:50:28.158Z,33.54
2023-02-18T18:52:55.950Z,33.84
2023-02-18T18:55:36.856Z,33.75
2023-02-18T18:58:04.012Z,33.61
2023-02-18T19:00:35.814Z,31.98
2023-02-18T19:03:04.281Z,31.57
2023-02-18T19:05:37.235Z,31.55
2023-02-18T19:08:04.141Z,31.90
2023-02-18T19:10:43.761Z,31.89
2023-02-18T19:13:15.122Z,32.22
2023-02-18T19:15:41.944Z,32.36
2023-02-18T19:18:13.200Z,32.61
2023-02-18T19:20:41.434Z,32.86
2023-02-18T19:23:09.798Z,32.85
2023-02-18T19:25:37.760Z,32.95
2023-02-18T19:28:06.867Z,32.68
2023-02-18T19:30:36.751Z,32.82
2023-02-18T19:33:07.712Z,33.10
2023-02-18T19:35:35.347Z,33.01
2023-02-18T19:38:02.972Z,32.82
2023-02-18T19:40:31.022Z,33.00
2023-02-18T19:42:58.086Z,33.12
2023-02-18T19:45:25.078Z,33.48
2023-02-18T19:48:01.005Z,34.00
2023-02-18T19:50:31.538Z,33.32
2023-02-18T19:52:59.237Z,33.21
2023-02-18T19:55:26.289Z,33.14
2023-02-18T19:57:53.607Z,33.30
2023-02-18T20:00:21.635Z,33.17
2023-02-18T20:02:50.211Z,33.14
2023-02-18T20:05:17.767Z,33.06
2023-02-18T20:07:46.823Z,33.05
2023-02-18T20:10:17.382Z,33.34
2023-02-18T20:12:45.751Z,33.09
2023-02-18T20:15:12.798Z,33.38
2023-02-18T20:17:39.848Z,33.26
2023-02-18T20:20:10.837Z,33.32
2023-02-18T20:22:39.369Z,34.19
2023-02-18T20:25:07.296Z,33.83
2023-02-18T20:27:34.374Z,33.69
2023-02-18T20:30:01.734Z,33.73
2023-02-18T20:32:29.405Z,33.63
2023-02-18T20:34:57.295Z,33.63
2023-02-18T20:37:26.592Z,33.55
2023-02-18T20:39:53.924Z,33.79
2023-02-18T20:42:37.918Z,33.60
2023-02-18T20:45:22.086Z,33.47
2023-02-18T20:47:50.057Z,33.82
2023-02-18T20:50:17.273Z,33.65
2023-02-18T20:52:44.260Z,33.75
2023-02-18T20:55:11.725Z,33.91
2023-02-18T20:57:39.723Z,33.56
2023-02-18T21:00:07.781Z,33.27
2023-02-18T21:02:35.043Z,33.39
2023-02-18T21:05:02.067Z,33.52
2023-02-18T21:07:29.651Z,33.86
2023-02-18T21:09:56.702Z,33.30
2023-02-18T21:12:23.696Z,33.60
2023-02-18T21:14:51.365Z,33.54
2023-02-18T21:17:19.924Z,33.42
2023-02-18T21:19:46.992Z,33.84
2023-02-18T21:22:13.992Z,33.82
2023-02-18T21:24:41.679Z,33.96
2023-02-18T21:27:08.666Z,33.52
2023-02-18T21:29:35.819Z,33.58
2023-02-18T21:32:03.155Z,33.85
2023-02-18T21:34:30.259Z,33.93
2023-02-18T21:36:57.398Z,34.42
2023-02-18T21:39:24.486Z,34.64
2023-02-18T21:41:54.327Z,35.16
2023-02-18T21:44:32.882Z,34.56
2023-02-18T21:47:07.436Z,34.04
2023-02-18T21:49:34.812Z,34.22
2023-02-18T21:52:10.572Z,34.28
2023-02-18T21:54:45.348Z,33.93
2023-02-18T21:57:17.278Z,34.02
2023-02-18T21:59:45.711Z,34.12
2023-02-18T22:02:33.488Z,34.02
2023-02-18T22:05:09.788Z,33.98
2023-02-18T22:07:37.708Z,34.03
2023-02-18T22:10:04.717Z,34.00
2023-02-18T22:12:32.780Z,33.99
2023-02-18T22:14:59.572Z,34.13
2023-02-18T22:17:29.616Z,33.82
2023-02-18T22:19:56.388Z,33.66
2023-02-18T22:22:23.144Z,33.93
2023-02-18T22:24:52.545Z,33.81
2023-02-18T22:27:19.524Z,33.77
2023-02-18T22:29:47.332Z,34.02
